< < Back
Terminal Aerodrome Forecast


Current Version              Previous Versions:   1  2  3  4  5  6  7  8  9  

Terminal Aerodrome Forecast

121
FTUS44 KOHX 210500
TAFBNA
TAF
KBNA 210520Z 2106/2206 21003KT P6SM SCT150
     FM211400 26007KT P6SM BKN050
     FM211700 31010G18KT P6SM SCT050
     FM220100 33006KT P6SM SCT250=



Latest METAR

060
SAUS70 KWBC 210600 RRA
MTRBNA
METAR KBNA 210553Z 18003KT 10SM CLR 21/18 A3002 RMK AO2 SLP157 T02060183
10267 20200 403110194 58004


USA.gov is the U.S. government's official web portal to all federal, state and local government web resources and services.